Time;durP1;ratioP1;P1;durP2;ratioP2;P2;SDS_P1;SDS_P2;PMS_P1;PMS_P2;Temp;Humidity;BMP_temperature;BMP_pressure;BME280_temperature;BME280_humidity;BME280_pressure;Samples;Min_cycle;Max_cycle;Signal;HPM_P1;HPM_P2
2020/12/06 00:00:13;;;;;;;62.58;33.80;;;1.20;99.90;;;;;;5107970;28;20059;-66
2020/12/06 00:02:39;;;;;;;63.90;35.03;;;1.20;99.90;;;;;;5106794;28;20055;-66
2020/12/06 00:05:10;;;;;;;69.40;34.35;;;1.20;99.90;;;;;;5090316;28;20054;-66
2020/12/06 00:07:40;;;;;;;66.32;35.08;;;1.20;99.90;;;;;;5112603;28;20417;-66
2020/12/06 00:10:17;;;;;;;68.25;32.83;;;1.10;99.90;;;;;;5112518;28;20074;-66
2020/12/06 00:12:44;;;;;;;69.00;35.60;;;1.10;99.90;;;;;;5112841;28;20048;-66
2020/12/06 00:15:11;;;;;;;66.75;33.50;;;1.20;99.90;;;;;;5111777;28;20039;-66
2020/12/06 00:17:38;;;;;;;60.97;33.30;;;1.20;99.90;;;;;;5111912;28;20051;-67
2020/12/06 00:20:07;;;;;;;61.00;32.03;;;1.20;99.90;;;;;;5115439;27;20054;-66
2020/12/06 00:22:34;;;;;;;60.70;32.60;;;1.20;99.90;;;;;;5111246;28;20383;-66
2020/12/06 00:25:00;;;;;;;69.10;33.42;;;1.10;99.90;;;;;;5112422;28;20051;-66
2020/12/06 00:27:26;;;;;;;69.95;33.67;;;1.20;99.90;;;;;;5111493;28;20050;-66
2020/12/06 00:29:53;;;;;;;67.53;33.88;;;1.20;99.90;;;;;;5110934;28;20050;-66
2020/12/06 00:32:19;;;;;;;62.47;32.63;;;1.20;99.90;;;;;;5111645;28;20483;-66
2020/12/06 00:34:46;;;;;;;69.82;33.35;;;1.20;99.90;;;;;;5110470;28;20062;-67
2020/12/06 00:37:15;;;;;;;66.97;33.42;;;1.20;99.90;;;;;;5110705;28;20100;-67
2020/12/06 00:39:43;;;;;;;65.63;33.13;;;1.20;99.90;;;;;;5110297;28;20048;-66
2020/12/06 00:42:10;;;;;;;66.03;33.53;;;1.20;99.90;;;;;;5112399;28;20154;-67
2020/12/06 00:44:37;;;;;;;62.67;33.08;;;1.20;99.90;;;;;;5109962;28;20059;-66
2020/12/06 00:47:04;;;;;;;65.97;34.38;;;1.20;99.90;;;;;;5111219;28;20126;-66
2020/12/06 00:49:31;;;;;;;65.40;34.13;;;1.20;99.90;;;;;;5110491;28;20936;-66
2020/12/06 00:51:58;;;;;;;64.00;32.08;;;1.20;99.90;;;;;;5111607;28;20055;-66
2020/12/06 00:54:25;;;;;;;62.80;31.52;;;1.20;99.90;;;;;;5110314;28;20044;-66
2020/12/06 00:56:57;;;;;;;60.47;32.17;;;1.20;99.90;;;;;;5109858;28;20048;-66
2020/12/06 00:59:24;;;;;;;61.53;32.75;;;1.10;99.90;;;;;;5111484;28;20046;-67
2020/12/06 01:01:51;;;;;;;55.78;30.10;;;1.20;99.90;;;;;;5097591;28;20429;-68
2020/12/06 01:04:18;;;;;;;59.42;30.83;;;1.10;99.90;;;;;;5109779;28;20119;-66
2020/12/06 01:06:44;;;;;;;61.58;31.50;;;1.10;99.90;;;;;;5109644;28;20075;-67
2020/12/06 01:09:11;;;;;;;61.33;30.05;;;1.10;99.90;;;;;;5110588;28;20044;-67
2020/12/06 01:11:37;;;;;;;55.17;30.55;;;1.10;99.90;;;;;;5110873;28;20051;-68
2020/12/06 01:14:04;;;;;;;59.30;31.85;;;1.10;99.90;;;;;;5108665;28;20051;-66
2020/12/06 01:16:30;;;;;;;61.95;33.08;;;1.10;99.90;;;;;;5109710;28;20079;-66
2020/12/06 01:18:57;;;;;;;54.22;29.05;;;1.20;99.90;;;;;;5111404;28;20043;-67
2020/12/06 01:21:23;;;;;;;63.03;32.72;;;1.20;99.90;;;;;;5109516;28;20051;-66
2020/12/06 01:23:50;;;;;;;54.80;31.00;;;1.20;99.90;;;;;;5110513;28;20051;-66
2020/12/06 01:26:16;;;;;;;55.90;31.20;;;1.20;99.90;;;;;;5108013;28;20059;-66
2020/12/06 01:28:43;;;;;;;58.58;32.83;;;1.20;99.90;;;;;;5107133;28;20048;-66
2020/12/06 01:31:09;;;;;;;52.53;29.90;;;1.20;99.90;;;;;;5109280;28;20401;-66
2020/12/06 01:33:36;;;;;;;57.10;31.35;;;1.30;99.90;;;;;;5109189;28;20051;-67
2020/12/06 01:36:02;;;;;;;59.97;30.20;;;1.20;99.90;;;;;;5108922;28;20135;-66
2020/12/06 01:38:29;;;;;;;53.55;28.20;;;1.30;99.90;;;;;;5109474;28;20044;-66
2020/12/06 01:40:56;;;;;;;67.65;32.83;;;1.30;99.90;;;;;;5109819;28;20516;-66
2020/12/06 01:43:22;;;;;;;58.10;30.77;;;1.30;99.90;;;;;;5109847;28;20409;-66
2020/12/06 01:45:49;;;;;;;60.58;31.38;;;1.30;99.90;;;;;;5110872;28;20044;-66
2020/12/06 01:48:15;;;;;;;60.33;32.17;;;1.20;99.90;;;;;;5110140;28;20397;-67
2020/12/06 01:50:42;;;;;;;60.83;31.92;;;1.20;99.90;;;;;;5107111;28;20052;-67
2020/12/06 01:53:09;;;;;;;58.40;30.55;;;1.20;99.90;;;;;;5108975;28;20139;-67
2020/12/06 01:55:38;;;;;;;58.25;30.83;;;1.20;99.90;;;;;;5109964;28;20047;-68
2020/12/06 01:58:06;;;;;;;62.45;31.02;;;1.20;99.90;;;;;;5108496;28;20044;-66
2020/12/06 02:00:34;;;;;;;56.67;29.48;;;1.20;99.90;;;;;;5108719;28;20050;-67
2020/12/06 02:03:02;;;;;;;56.85;31.23;;;1.20;99.90;;;;;;5107374;28;20405;-66
2020/12/06 02:05:30;;;;;;;57.63;30.30;;;1.20;99.90;;;;;;5105184;28;20407;-66
2020/12/06 02:07:59;;;;;;;61.60;30.95;;;1.20;99.90;;;;;;5108512;28;20066;-66
2020/12/06 02:10:27;;;;;;;55.35;31.25;;;1.20;99.90;;;;;;5109046;28;20494;-66
2020/12/06 02:12:55;;;;;;;61.08;30.60;;;1.20;99.90;;;;;;5110198;28;20054;-67
2020/12/06 02:15:22;;;;;;;55.10;30.42;;;1.20;99.90;;;;;;5109806;28;20040;-67
2020/12/06 02:17:49;;;;;;;52.95;29.83;;;1.20;99.90;;;;;;5107641;28;20406;-66
2020/12/06 02:20:16;;;;;;;59.15;30.20;;;1.20;99.90;;;;;;5109908;28;20058;-67
2020/12/06 02:22:43;;;;;;;54.97;30.10;;;1.20;99.90;;;;;;5108255;28;20043;-67
2020/12/06 02:25:09;;;;;;;52.58;29.42;;;1.20;99.90;;;;;;5109678;28;20406;-67
2020/12/06 02:27:36;;;;;;;50.15;28.52;;;1.20;99.90;;;;;;5107047;28;20475;-68
2020/12/06 02:30:03;;;;;;;53.85;29.08;;;1.20;99.90;;;;;;5108134;28;20039;-67
2020/12/06 02:32:30;;;;;;;53.72;28.48;;;1.20;99.90;;;;;;5109232;28;20044;-67
2020/12/06 02:34:56;;;;;;;50.30;27.65;;;1.20;99.90;;;;;;5108022;28;20048;-66
2020/12/06 02:37:23;;;;;;;54.45;30.30;;;1.20;99.90;;;;;;5107120;28;20051;-66
2020/12/06 02:39:52;;;;;;;53.13;29.13;;;1.20;99.90;;;;;;5108855;28;20088;-67
2020/12/06 02:42:19;;;;;;;50.05;28.27;;;1.20;99.90;;;;;;5090518;28;20071;-66
2020/12/06 02:44:46;;;;;;;48.83;27.85;;;1.20;99.90;;;;;;5092734;28;20123;-67
2020/12/06 02:47:12;;;;;;;54.50;28.35;;;1.20;99.90;;;;;;5108031;28;20042;-66
2020/12/06 02:49:42;;;;;;;51.88;28.05;;;1.20;99.90;;;;;;5109190;28;20082;-67
2020/12/06 02:52:09;;;;;;;51.70;29.13;;;1.20;99.90;;;;;;5109174;28;20490;-65
2020/12/06 02:54:37;;;;;;;48.63;27.65;;;1.20;99.90;;;;;;5109288;28;20120;-67
2020/12/06 02:57:03;;;;;;;55.95;29.15;;;1.20;99.90;;;;;;5108933;28;20059;-65
2020/12/06 02:59:31;;;;;;;53.55;28.33;;;1.20;99.90;;;;;;5108316;28;20052;-65
2020/12/06 03:01:57;;;;;;;56.25;29.65;;;1.20;99.90;;;;;;5107969;28;20063;-65
2020/12/06 03:04:25;;;;;;;48.72;28.40;;;1.20;99.90;;;;;;5108595;28;20489;-65
2020/12/06 03:06:51;;;;;;;54.72;30.55;;;1.30;99.90;;;;;;5108621;28;20042;-67
2020/12/06 03:09:17;;;;;;;48.65;27.83;;;1.30;99.90;;;;;;5108315;28;20051;-65
2020/12/06 03:11:44;;;;;;;50.28;27.65;;;1.30;99.90;;;;;;5107150;28;20044;-66
2020/12/06 03:14:10;;;;;;;50.35;27.48;;;1.40;99.90;;;;;;5106991;28;20390;-66
2020/12/06 03:16:37;;;;;;;47.97;27.20;;;1.40;99.90;;;;;;5107509;28;20055;-65
2020/12/06 03:19:03;;;;;;;48.65;27.33;;;1.40;99.90;;;;;;5098923;28;20070;-66
2020/12/06 03:21:30;;;;;;;47.38;26.63;;;1.40;99.90;;;;;;5108354;28;20039;-65
2020/12/06 03:23:57;;;;;;;45.72;25.83;;;1.40;99.90;;;;;;5108224;28;20401;-66
2020/12/06 03:26:23;;;;;;;56.47;29.20;;;1.40;99.90;;;;;;5108937;28;20046;-67
2020/12/06 03:28:50;;;;;;;51.20;27.38;;;1.50;99.90;;;;;;5109302;28;20047;-68
2020/12/06 03:31:16;;;;;;;48.60;26.92;;;1.50;99.90;;;;;;5107570;28;20047;-66
2020/12/06 03:33:43;;;;;;;49.60;26.75;;;1.50;99.90;;;;;;5090871;28;20078;-65
2020/12/06 03:36:09;;;;;;;51.92;27.83;;;1.50;99.90;;;;;;5108026;28;20051;-66
2020/12/06 03:38:36;;;;;;;44.83;25.92;;;1.60;99.90;;;;;;5107826;28;20055;-66
2020/12/06 03:41:03;;;;;;;45.90;24.58;;;1.60;99.90;;;;;;5111134;28;20486;-66
2020/12/06 03:43:29;;;;;;;48.33;27.48;;;1.60;99.90;;;;;;5110393;28;20055;-66
2020/12/06 03:45:56;;;;;;;49.90;26.55;;;1.70;99.90;;;;;;5112237;28;20467;-65
2020/12/06 03:48:22;;;;;;;42.97;24.45;;;1.70;99.90;;;;;;5112896;28;20407;-65
2020/12/06 03:50:49;;;;;;;44.42;25.42;;;1.70;99.90;;;;;;5112084;28;20142;-65
2020/12/06 03:53:15;;;;;;;44.13;25.58;;;1.70;99.90;;;;;;5112518;28;20413;-67
2020/12/06 03:55:41;;;;;;;47.05;26.35;;;1.80;99.90;;;;;;5111215;28;20126;-65
2020/12/06 03:58:08;;;;;;;43.03;24.38;;;1.70;99.90;;;;;;5112187;28;20130;-65
2020/12/06 04:00:35;;;;;;;44.53;25.33;;;1.80;99.90;;;;;;5112120;28;20051;-66
2020/12/06 04:03:02;;;;;;;47.90;26.00;;;1.80;99.90;;;;;;5111501;28;20043;-66
2020/12/06 04:05:29;;;;;;;46.17;26.58;;;1.70;99.90;;;;;;5092968;28;20097;-67
2020/12/06 04:07:55;;;;;;;44.05;24.83;;;1.70;99.90;;;;;;5111151;28;20054;-65
2020/12/06 04:10:22;;;;;;;45.53;25.30;;;1.70;99.90;;;;;;5112474;28;20050;-66
2020/12/06 04:12:48;;;;;;;44.45;24.25;;;1.70;99.90;;;;;;5111561;28;20413;-65
2020/12/06 04:15:15;;;;;;;42.45;24.52;;;1.70;99.90;;;;;;5112886;28;20062;-66
2020/12/06 04:17:41;;;;;;;44.50;24.25;;;1.70;99.90;;;;;;5111337;28;20059;-65
2020/12/06 04:20:09;;;;;;;41.85;24.13;;;1.70;99.90;;;;;;5113836;28;20470;-66
2020/12/06 04:22:36;;;;;;;44.42;25.70;;;1.70;99.90;;;;;;5109781;28;20058;-67
2020/12/06 04:25:03;;;;;;;46.00;26.27;;;1.70;99.90;;;;;;5093804;28;20129;-66
2020/12/06 04:27:29;;;;;;;48.95;27.77;;;1.70;99.90;;;;;;5109361;28;20047;-66
2020/12/06 04:29:56;;;;;;;50.55;27.58;;;1.60;99.90;;;;;;5110939;28;20048;-65
2020/12/06 04:32:22;;;;;;;46.35;27.27;;;1.60;99.90;;;;;;5109109;28;20059;-66
2020/12/06 04:34:49;;;;;;;52.13;30.15;;;1.60;99.90;;;;;;5112500;28;20054;-67
2020/12/06 04:37:15;;;;;;;54.15;29.08;;;1.50;99.90;;;;;;5110637;28;20379;-65
2020/12/06 04:39:42;;;;;;;54.65;30.92;;;1.50;99.90;;;;;;5111477;28;20051;-66
2020/12/06 04:42:09;;;;;;;55.33;28.83;;;1.50;99.90;;;;;;5109713;28;20464;-66
2020/12/06 04:44:35;;;;;;;49.58;28.65;;;1.40;99.90;;;;;;5111940;28;20077;-66
2020/12/06 04:47:04;;;;;;;53.22;28.48;;;1.40;99.90;;;;;;5109553;28;20051;-66
2020/12/06 04:49:45;;;;;;;57.60;30.58;;;1.40;99.90;;;;;;5111612;28;20070;-67
2020/12/06 04:52:17;;;;;;;53.20;30.17;;;1.40;99.90;;;;;;5099082;28;20134;-66
2020/12/06 04:54:50;;;;;;;51.40;29.70;;;1.30;99.90;;;;;;5111672;28;20046;-65
2020/12/06 04:57:19;;;;;;;53.67;29.88;;;1.20;99.90;;;;;;5109895;28;20492;-66
2020/12/06 04:59:47;;;;;;;58.63;30.88;;;1.20;99.90;;;;;;5111689;28;20047;-67
2020/12/06 05:02:19;;;;;;;56.90;30.88;;;1.20;99.90;;;;;;5110571;28;20044;-65
2020/12/06 05:04:48;;;;;;;62.67;32.53;;;1.20;99.90;;;;;;5111929;28;20055;-66
2020/12/06 05:07:18;;;;;;;56.45;31.73;;;1.20;99.90;;;;;;5111231;28;20043;-66
2020/12/06 05:09:48;;;;;;;61.97;31.83;;;1.20;99.90;;;;;;5111189;28;20404;-66
2020/12/06 05:12:15;;;;;;;63.05;31.88;;;1.20;99.90;;;;;;5096583;28;20044;-65
2020/12/06 05:14:42;;;;;;;63.67;33.83;;;1.20;99.90;;;;;;5110777;28;20051;-66
2020/12/06 05:17:10;;;;;;;63.33;32.55;;;1.10;99.90;;;;;;5110844;28;20048;-65
2020/12/06 05:19:36;;;;;;;56.47;30.67;;;1.10;99.90;;;;;;5111134;28;20370;-68
2020/12/06 05:22:03;;;;;;;56.65;30.42;;;1.10;99.90;;;;;;5110452;28;20394;-66
2020/12/06 05:24:30;;;;;;;53.80;28.90;;;1.10;99.90;;;;;;5110832;28;20055;-66
2020/12/06 05:26:57;;;;;;;61.80;32.42;;;1.10;99.90;;;;;;5108474;28;20043;-66
2020/12/06 05:29:23;;;;;;;61.60;31.23;;;1.00;99.90;;;;;;5110887;28;20055;-66
2020/12/06 05:31:50;;;;;;;58.20;32.10;;;1.00;99.90;;;;;;5109417;28;20047;-65
2020/12/06 05:34:19;;;;;;;60.45;29.95;;;1.00;99.90;;;;;;5110495;28;20078;-66
2020/12/06 05:36:46;;;;;;;60.88;34.58;;;1.00;99.90;;;;;;5109606;28;20058;-66
2020/12/06 05:39:12;;;;;;;59.97;31.25;;;1.00;99.90;;;;;;5111123;28;20078;-65
2020/12/06 05:41:38;;;;;;;57.30;29.90;;;0.90;99.90;;;;;;5109016;28;20055;-65
2020/12/06 05:44:06;;;;;;;55.55;29.52;;;0.90;99.90;;;;;;5111321;28;20047;-65
2020/12/06 05:46:35;;;;;;;54.85;31.92;;;0.90;99.90;;;;;;5109032;28;20040;-66
2020/12/06 05:49:05;;;;;;;51.63;28.88;;;0.90;99.90;;;;;;5109982;28;20048;-66
2020/12/06 05:51:33;;;;;;;61.92;30.63;;;0.90;99.90;;;;;;5110536;28;20383;-66
2020/12/06 05:53:59;;;;;;;60.65;30.60;;;0.90;99.90;;;;;;5109232;28;20051;-66
2020/12/06 05:56:26;;;;;;;61.33;30.48;;;0.90;99.90;;;;;;5109424;28;20048;-66
2020/12/06 05:58:53;;;;;;;58.50;31.05;;;0.90;99.90;;;;;;5110031;28;20401;-66
2020/12/06 06:01:21;;;;;;;60.65;30.55;;;0.90;99.90;;;;;;5090734;28;20039;-64
2020/12/06 06:03:49;;;;;;;54.42;31.50;;;1.00;99.90;;;;;;5109922;28;20052;-66
2020/12/06 06:06:23;;;;;;;59.95;31.13;;;0.90;99.90;;;;;;5090112;28;20414;-66
2020/12/06 06:08:53;;;;;;;55.65;28.90;;;1.00;99.90;;;;;;5080410;28;20425;-66
2020/12/06 06:11:26;;;;;;;58.40;31.42;;;1.00;99.90;;;;;;5108183;28;20066;-67
2020/12/06 06:14:00;;;;;;;60.05;31.25;;;0.90;99.90;;;;;;5108886;28;20049;-67
2020/12/06 06:16:29;;;;;;;62.00;30.90;;;0.90;99.90;;;;;;5109389;28;20124;-66
2020/12/06 06:18:58;;;;;;;61.40;34.38;;;0.90;99.90;;;;;;5109799;28;20051;-66
2020/12/06 06:21:31;;;;;;;60.70;31.55;;;1.00;99.90;;;;;;5108913;28;20053;-66
2020/12/06 06:24:00;;;;;;;55.78;31.52;;;0.90;99.90;;;;;;5108948;28;20054;-65
2020/12/06 06:26:31;;;;;;;58.38;31.25;;;1.00;99.90;;;;;;5106535;28;20382;-66
2020/12/06 06:28:58;;;;;;;58.63;32.13;;;0.90;99.90;;;;;;5109849;28;20533;-67
2020/12/06 06:31:27;;;;;;;52.35;30.10;;;0.90;99.90;;;;;;5107446;28;20490;-66
2020/12/06 06:33:55;;;;;;;60.50;32.33;;;0.90;99.90;;;;;;5091237;28;20039;-66
2020/12/06 06:36:22;;;;;;;56.97;30.50;;;0.90;99.90;;;;;;5108408;28;20079;-66
2020/12/06 06:38:51;;;;;;;57.28;31.67;;;0.90;99.90;;;;;;5110428;28;20358;-66
2020/12/06 06:41:17;;;;;;;51.75;31.58;;;0.90;99.90;;;;;;5108876;28;20042;-66
2020/12/06 06:43:44;;;;;;;59.75;32.92;;;0.90;99.90;;;;;;5110118;28;20082;-67
2020/12/06 06:46:21;;;;;;;57.47;30.73;;;1.00;99.90;;;;;;5108231;28;20390;-68
2020/12/06 06:48:49;;;;;;;57.75;30.15;;;1.00;99.90;;;;;;5099225;28;20048;-65
2020/12/06 06:51:21;;;;;;;54.60;30.85;;;1.00;99.90;;;;;;5089615;28;20043;-66
2020/12/06 06:53:49;;;;;;;56.50;30.80;;;1.00;99.90;;;;;;5091354;28;20047;-66
2020/12/06 06:56:19;;;;;;;51.92;27.88;;;1.00;99.90;;;;;;5108864;28;20051;-65
2020/12/06 06:58:47;;;;;;;56.95;29.88;;;1.10;99.90;;;;;;5108740;28;20050;-66
2020/12/06 07:01:23;;;;;;;57.45;32.65;;;1.00;99.90;;;;;;5091260;28;20047;-67
2020/12/06 07:03:54;;;;;;;55.13;30.52;;;1.10;99.90;;;;;;5096799;28;20047;-67
2020/12/06 07:06:59;;;;;;;56.78;32.15;;;1.00;99.90;;;;;;5109429;28;20044;-66
2020/12/06 07:09:30;;;;;;;65.10;33.00;;;1.00;99.90;;;;;;5056517;28;20064;-67
2020/12/06 07:11:59;;;;;;;61.25;33.67;;;1.00;99.90;;;;;;5057764;28;20520;-66
2020/12/06 07:14:27;;;;;;;64.32;32.42;;;1.00;99.90;;;;;;5039747;28;20056;-66
2020/12/06 07:16:56;;;;;;;60.75;34.08;;;0.90;99.90;;;;;;5056333;28;20526;-69
2020/12/06 07:19:23;;;;;;;60.63;33.67;;;1.00;99.90;;;;;;5067281;28;20041;-67
2020/12/06 07:21:51;;;;;;;62.10;32.42;;;0.90;99.90;;;;;;5046324;28;20052;-67
2020/12/06 07:24:18;;;;;;;65.93;33.08;;;1.00;99.90;;;;;;5041990;28;20140;-67
2020/12/06 07:26:46;;;;;;;61.08;31.23;;;1.00;99.90;;;;;;5052432;28;20046;-66
2020/12/06 07:29:14;;;;;;;60.50;31.80;;;1.00;99.90;;;;;;5051195;28;20130;-67
2020/12/06 07:31:40;;;;;;;64.80;32.45;;;1.00;99.90;;;;;;5049983;28;20491;-66
2020/12/06 07:34:08;;;;;;;62.22;32.67;;;1.00;99.90;;;;;;5049875;28;20053;-68
2020/12/06 07:36:37;;;;;;;58.35;30.88;;;1.00;99.90;;;;;;5048487;28;20049;-67
2020/12/06 07:39:17;;;;;;;56.58;30.13;;;1.00;99.90;;;;;;5052696;28;20055;-68
2020/12/06 07:41:48;;;;;;;62.97;32.95;;;1.10;99.90;;;;;;5112745;28;20131;-66
2020/12/06 07:44:15;;;;;;;56.45;32.10;;;1.10;99.90;;;;;;5112139;28;20268;-66
2020/12/06 07:46:42;;;;;;;59.80;30.98;;;1.20;99.90;;;;;;5091624;28;20283;-67
2020/12/06 07:49:09;;;;;;;54.92;29.55;;;1.10;99.90;;;;;;5103286;28;20051;-65
2020/12/06 07:51:35;;;;;;;56.38;30.23;;;1.20;99.90;;;;;;5111139;28;20050;-65
2020/12/06 07:54:03;;;;;;;52.67;28.27;;;1.20;99.90;;;;;;5112636;28;20050;-66
2020/12/06 07:56:30;;;;;;;58.05;31.05;;;1.20;99.90;;;;;;5091810;28;20051;-65
2020/12/06 07:59:05;;;;;;;59.25;30.83;;;1.30;99.90;;;;;;5113036;28;20052;-66
2020/12/06 08:01:32;;;;;;;51.25;29.70;;;1.30;99.90;;;;;;5110793;28;20046;-65
2020/12/06 08:04:22;;;;;;;53.55;30.42;;;1.30;99.90;;;;;;5111906;28;20048;-66
2020/12/06 08:06:51;;;;;;;54.03;29.38;;;1.40;99.90;;;;;;5110850;28;20043;-66
2020/12/06 08:09:21;;;;;;;55.40;30.67;;;1.50;99.90;;;;;;5110585;28;20050;-65
2020/12/06 08:11:51;;;;;;;53.25;32.05;;;1.50;99.90;;;;;;5090621;28;20043;-66
2020/12/06 08:14:21;;;;;;;56.78;33.08;;;1.50;99.90;;;;;;5111401;28;20067;-66
2020/12/06 08:16:58;;;;;;;57.58;31.60;;;1.60;99.90;;;;;;5110060;28;20052;-65
2020/12/06 08:19:26;;;;;;;54.25;30.70;;;1.60;99.90;;;;;;5112113;28;20494;-66
2020/12/06 08:22:03;;;;;;;53.83;31.48;;;1.70;99.90;;;;;;5112070;28;20508;-64
2020/12/06 08:24:31;;;;;;;58.08;32.17;;;1.70;99.90;;;;;;5110204;28;20053;-66
2020/12/06 08:26:59;;;;;;;54.45;31.90;;;1.70;99.90;;;;;;5110436;28;20087;-65
2020/12/06 08:29:41;;;;;;;60.42;35.00;;;1.80;99.90;;;;;;5109322;28;20149;-65
2020/12/06 08:32:09;;;;;;;55.55;32.67;;;1.80;99.90;;;;;;5111868;28;20584;-66
2020/12/06 08:34:35;;;;;;;55.05;31.23;;;1.90;99.90;;;;;;5093181;28;20473;-66
2020/12/06 08:37:18;;;;;;;57.35;31.98;;;1.90;99.90;;;;;;5110284;28;20052;-65
2020/12/06 08:39:46;;;;;;;52.72;29.80;;;1.90;99.90;;;;;;5110492;28;20043;-66
2020/12/06 08:42:18;;;;;;;52.60;29.95;;;2.00;99.90;;;;;;5110991;28;20052;-64
2020/12/06 08:44:58;;;;;;;;;;;2.00;99.90;;;;;;5111398;28;20059;-65
2020/12/06 08:47:27;;;;;;;50.40;28.20;;;2.00;99.90;;;;;;5109987;28;19962;-65
2020/12/06 08:50:08;;;;;;;52.38;29.45;;;2.00;99.90;;;;;;5111251;28;20231;-65
2020/12/06 08:52:35;;;;;;;51.25;30.63;;;2.00;99.90;;;;;;5113507;28;20040;-66
2020/12/06 08:55:22;;;;;;;45.70;27.75;;;2.00;99.90;;;;;;5095187;28;20138;-66
2020/12/06 08:57:49;;;;;;;49.65;28.10;;;1.90;99.90;;;;;;5093787;28;20117;-66
2020/12/06 09:00:15;;;;;;;51.35;28.80;;;1.80;99.90;;;;;;5112261;28;20052;-66
2020/12/06 09:02:42;;;;;;;50.67;28.77;;;1.80;99.90;;;;;;5110570;28;20047;-66
2020/12/06 09:05:09;;;;;;;45.15;27.75;;;1.80;99.90;;;;;;5110901;28;20130;-66
2020/12/06 09:07:40;;;;;;;47.72;27.80;;;1.80;99.90;;;;;;5099830;28;20477;-66
2020/12/06 09:10:07;;;;;;;46.58;27.17;;;1.80;99.90;;;;;;5111617;28;20062;-67
2020/12/06 09:12:36;;;;;;;49.58;29.25;;;1.80;99.90;;;;;;5109607;28;20399;-67
2020/12/06 09:15:04;;;;;;;47.20;26.30;;;1.80;99.90;;;;;;5111532;28;20046;-66
2020/12/06 09:17:31;;;;;;;45.70;26.08;;;1.80;99.90;;;;;;5110010;28;20065;-66
2020/12/06 09:19:57;;;;;;;43.75;26.65;;;1.90;99.90;;;;;;5111294;27;20088;-67
2020/12/06 09:22:24;;;;;;;48.63;28.23;;;1.90;99.90;;;;;;5092240;28;20052;-67
2020/12/06 09:24:50;;;;;;;45.63;26.45;;;1.90;99.90;;;;;;5110647;28;20048;-65
2020/12/06 09:27:17;;;;;;;45.05;26.45;;;2.00;99.90;;;;;;5108692;28;20047;-65
2020/12/06 09:29:43;;;;;;;44.20;26.77;;;2.00;99.90;;;;;;5109808;28;20044;-67
2020/12/06 09:32:10;;;;;;;46.75;27.08;;;2.10;99.90;;;;;;5088006;28;20177;-65
2020/12/06 09:34:36;;;;;;;45.88;26.58;;;2.20;99.90;;;;;;5107571;28;20386;-65
2020/12/06 09:37:03;;;;;;;41.00;25.35;;;2.20;99.90;;;;;;5106054;28;20051;-65
2020/12/06 09:39:30;;;;;;;45.67;26.15;;;2.30;99.90;;;;;;5110740;28;20056;-65
2020/12/06 09:41:57;;;;;;;43.63;25.95;;;2.30;99.90;;;;;;5109604;28;20416;-66
2020/12/06 09:44:23;;;;;;;41.35;25.90;;;2.40;99.90;;;;;;5110385;28;20515;-67
2020/12/06 09:46:50;;;;;;;41.25;24.88;;;2.40;99.90;;;;;;5108964;28;20060;-66
2020/12/06 09:49:16;;;;;;;41.58;25.88;;;2.40;99.90;;;;;;5110232;28;20059;-66
2020/12/06 09:51:43;;;;;;;43.60;26.35;;;2.30;99.90;;;;;;5110406;28;20055;-67
2020/12/06 09:54:09;;;;;;;47.42;26.65;;;2.30;99.90;;;;;;5109169;28;20055;-66
2020/12/06 09:56:36;;;;;;;47.58;27.20;;;2.30;99.90;;;;;;5109843;28;20520;-66
2020/12/06 09:59:02;;;;;;;45.95;27.30;;;2.30;99.90;;;;;;5109743;28;20048;-66
2020/12/06 10:01:29;;;;;;;48.20;27.25;;;2.30;99.90;;;;;;5107756;28;20069;-66
2020/12/06 10:03:55;;;;;;;47.90;26.83;;;2.20;99.90;;;;;;5109684;28;20052;-66
2020/12/06 10:06:26;;;;;;;45.15;26.05;;;2.20;99.90;;;;;;5108450;28;20493;-66
2020/12/06 10:08:53;;;;;;;45.08;25.95;;;2.30;99.90;;;;;;5110505;28;20056;-67
2020/12/06 10:11:21;;;;;;;42.67;24.77;;;2.30;99.90;;;;;;5109300;28;20063;-66
2020/12/06 10:13:47;;;;;;;48.20;26.92;;;2.30;99.90;;;;;;5109935;28;20143;-66
2020/12/06 10:16:14;;;;;;;45.67;26.98;;;2.30;99.90;;;;;;5109010;28;20040;-66
2020/12/06 10:18:41;;;;;;;46.30;27.05;;;2.30;99.90;;;;;;5109153;28;20050;-66
2020/12/06 10:21:11;;;;;;;45.78;26.13;;;2.30;99.90;;;;;;5108832;28;20047;-65
2020/12/06 10:23:38;;;;;;;42.78;25.20;;;2.40;99.90;;;;;;5109279;28;20059;-66
2020/12/06 10:26:04;;;;;;;47.17;26.02;;;2.30;99.90;;;;;;5108452;28;20465;-64
2020/12/06 10:28:31;;;;;;;45.47;26.33;;;2.40;99.90;;;;;;5107193;28;20040;-66
2020/12/06 10:30:58;;;;;;;40.20;24.73;;;2.50;99.90;;;;;;5108883;28;20047;-65
2020/12/06 10:33:24;;;;;;;42.55;24.67;;;2.50;99.90;;;;;;5109988;28;20123;-66
2020/12/06 10:35:51;;;;;;;47.58;27.55;;;2.50;99.90;;;;;;5109127;28;20060;-65
2020/12/06 10:38:18;;;;;;;44.22;27.65;;;2.50;99.90;;;;;;5109714;28;20050;-65
2020/12/06 10:40:45;;;;;;;46.30;26.63;;;2.50;99.90;;;;;;5110593;28;20043;-64
2020/12/06 10:43:11;;;;;;;45.05;26.50;;;2.40;99.90;;;;;;5090989;28;20359;-65
2020/12/06 10:45:38;;;;;;;44.10;27.17;;;2.50;99.90;;;;;;5109368;28;20090;-65
2020/12/06 10:48:04;;;;;;;43.67;25.98;;;2.50;99.90;;;;;;5108808;28;20036;-65
2020/12/06 10:50:32;;;;;;;42.78;25.75;;;2.60;99.90;;;;;;5108035;28;20462;-67
2020/12/06 10:52:59;;;;;;;46.42;27.40;;;2.70;99.90;;;;;;5090275;28;20055;-65
2020/12/06 10:55:25;;;;;;;40.88;23.73;;;2.70;99.90;;;;;;5072115;28;20051;-64
2020/12/06 10:57:53;;;;;;;41.45;25.73;;;2.80;99.90;;;;;;5107661;28;20065;-65
2020/12/06 11:00:20;;;;;;;53.90;29.45;;;2.90;99.90;;;;;;5109900;28;20055;-66
2020/12/06 11:02:47;;;;;;;49.05;28.48;;;2.90;99.90;;;;;;5107919;28;20131;-66
2020/12/06 11:05:13;;;;;;;42.60;26.63;;;3.00;99.90;;;;;;5109410;28;20044;-66
2020/12/06 11:07:40;;;;;;;47.72;26.77;;;3.00;99.90;;;;;;5107357;28;20048;-68
2020/12/06 11:10:07;;;;;;;47.08;25.98;;;3.00;99.90;;;;;;5109132;28;20052;-67
2020/12/06 11:12:33;;;;;;;45.28;26.70;;;3.10;99.90;;;;;;5107158;28;20043;-66
2020/12/06 11:15:01;;;;;;;47.20;27.38;;;3.10;99.90;;;;;;5109398;28;20113;-67
2020/12/06 11:17:30;;;;;;;47.28;26.80;;;3.10;99.90;;;;;;5106840;28;20059;-66
2020/12/06 11:19:58;;;;;;;40.28;24.02;;;3.10;99.90;;;;;;5114756;28;20051;-66
2020/12/06 11:22:25;;;;;;;43.00;25.17;;;3.30;99.90;;;;;;5108340;28;20039;-67
2020/12/06 11:24:52;;;;;;;46.63;27.08;;;3.40;99.90;;;;;;5107683;28;20074;-67
2020/12/06 11:27:18;;;;;;;44.67;25.95;;;3.40;99.90;;;;;;5105645;28;20043;-67
2020/12/06 11:29:45;;;;;;;45.03;25.58;;;3.30;99.90;;;;;;5083755;28;20048;-67
2020/12/06 11:32:12;;;;;;;43.78;27.02;;;3.30;99.90;;;;;;5099275;28;20054;-66
2020/12/06 11:34:38;;;;;;;44.75;25.30;;;3.20;99.90;;;;;;5108847;28;20474;-66
2020/12/06 11:37:05;;;;;;;39.70;23.65;;;3.20;99.90;;;;;;5107321;28;20048;-65
2020/12/06 11:39:32;;;;;;;44.88;25.48;;;3.20;99.90;;;;;;5108621;28;20048;-66
2020/12/06 11:41:59;;;;;;;46.28;27.27;;;3.10;99.90;;;;;;5108944;28;20510;-67
2020/12/06 11:44:25;;;;;;;48.47;27.23;;;3.10;99.90;;;;;;5109822;28;20063;-66
2020/12/06 11:46:51;;;;;;;42.72;26.13;;;3.10;99.90;;;;;;5107431;28;20081;-66
2020/12/06 11:49:18;;;;;;;44.85;25.67;;;3.00;99.90;;;;;;5090408;28;20044;-66
2020/12/06 11:51:45;;;;;;;46.08;26.45;;;3.00;99.90;;;;;;5106429;28;20052;-65
2020/12/06 11:54:11;;;;;;;46.92;25.30;;;3.00;99.90;;;;;;5108616;28;20516;-68
2020/12/06 11:56:38;;;;;;;46.53;26.63;;;3.00;99.90;;;;;;5106800;28;20051;-67
2020/12/06 11:59:04;;;;;;;46.60;26.38;;;2.90;99.90;;;;;;5109604;28;20040;-65
2020/12/06 12:01:30;;;;;;;47.30;27.45;;;2.80;99.90;;;;;;5110015;28;20051;-66
2020/12/06 12:03:57;;;;;;;45.30;26.08;;;2.80;99.90;;;;;;5112356;28;20059;-65
2020/12/06 12:06:23;;;;;;;50.13;26.95;;;2.80;99.90;;;;;;5111150;28;20374;-67
2020/12/06 12:08:51;;;;;;;47.25;27.20;;;2.80;99.90;;;;;;5111694;28;20083;-66
2020/12/06 12:11:21;;;;;;;46.83;27.23;;;2.80;99.90;;;;;;5111914;28;20040;-67
2020/12/06 12:13:48;;;;;;;46.60;26.55;;;2.80;99.90;;;;;;5112024;28;20118;-67
2020/12/06 12:16:14;;;;;;;50.05;28.00;;;2.80;99.90;;;;;;5110688;28;20043;-66
2020/12/06 12:18:41;;;;;;;47.03;27.73;;;2.80;99.90;;;;;;5110922;28;20527;-67
2020/12/06 12:21:08;;;;;;;51.10;28.10;;;2.80;99.90;;;;;;5112606;28;20060;-66
2020/12/06 12:23:34;;;;;;;53.15;29.90;;;2.80;99.90;;;;;;5112254;28;20058;-66
2020/12/06 12:26:01;;;;;;;54.35;29.88;;;2.80;99.90;;;;;;5110989;28;20043;-66
2020/12/06 12:28:29;;;;;;;51.63;29.52;;;2.80;99.90;;;;;;5110915;28;20035;-66
2020/12/06 12:30:56;;;;;;;49.00;27.40;;;2.90;99.90;;;;;;5110499;28;20058;-67
2020/12/06 12:33:22;;;;;;;53.80;28.90;;;2.90;99.90;;;;;;5112097;28;20054;-66
2020/12/06 12:35:49;;;;;;;53.75;29.20;;;2.90;99.90;;;;;;5111493;28;20047;-66
2020/12/06 12:38:16;;;;;;;52.03;28.05;;;2.90;99.90;;;;;;5112027;28;20627;-66
2020/12/06 12:40:42;;;;;;;50.25;28.70;;;2.90;99.90;;;;;;5111773;28;20055;-66